createdAt,value
2023-01-25T00:00:41.365Z,99.99
2023-01-25T00:01:41.368Z,99.99
2023-01-25T00:02:41.343Z,99.99
2023-01-25T00:03:41.353Z,99.99
2023-01-25T00:04:41.304Z,99.99
2023-01-25T00:05:41.311Z,99.99
2023-01-25T00:06:41.289Z,99.99
2023-01-25T00:07:41.466Z,99.99
2023-01-25T00:08:41.288Z,99.99
2023-01-25T00:09:41.259Z,99.99
2023-01-25T00:10:41.238Z,99.99
2023-01-25T00:11:41.238Z,99.99
2023-01-25T00:12:41.230Z,99.99
2023-01-25T00:13:42.120Z,99.99
2023-01-25T00:14:41.751Z,99.99
2023-01-25T00:15:41.185Z,99.99
2023-01-25T00:16:41.214Z,99.99
2023-01-25T00:17:41.194Z,99.99
2023-01-25T00:18:41.162Z,99.99
2023-01-25T00:19:41.146Z,99.99
2023-01-25T00:20:41.131Z,99.99
2023-01-25T00:21:41.119Z,99.99
2023-01-25T00:22:41.138Z,99.99
2023-01-25T00:23:41.111Z,99.99
2023-01-25T00:24:41.062Z,99.99
2023-01-25T00:25:41.075Z,99.99
2023-01-25T00:26:41.043Z,99.99
2023-01-25T00:27:41.099Z,99.99
2023-01-25T00:28:41.151Z,99.99
2023-01-25T00:29:41.002Z,99.99
2023-01-25T00:30:40.985Z,99.99
2023-01-25T00:31:41.088Z,99.99
2023-01-25T00:32:41.129Z,99.99
2023-01-25T00:33:40.972Z,99.99
2023-01-25T00:34:41.241Z,99.99
2023-01-25T00:35:40.921Z,99.99
2023-01-25T00:36:41.595Z,99.99
2023-01-25T00:37:40.893Z,99.99
2023-01-25T00:38:40.901Z,99.99
2023-01-25T00:39:40.866Z,99.99
2023-01-25T00:40:40.853Z,99.99
2023-01-25T00:41:40.853Z,99.99
2023-01-25T00:42:40.823Z,99.99
2023-01-25T00:43:40.881Z,99.99
2023-01-25T00:44:42.257Z,99.99
2023-01-25T00:45:40.817Z,99.99
2023-01-25T00:46:40.769Z,99.99
2023-01-25T00:47:41.677Z,99.99
2023-01-25T00:48:40.770Z,99.99
2023-01-25T00:49:40.737Z,99.99
2023-01-25T00:50:40.719Z,99.99
2023-01-25T00:51:40.709Z,99.99
2023-01-25T00:52:40.698Z,99.99
2023-01-25T00:53:41.609Z,99.99
2023-01-25T00:54:40.684Z,99.99
2023-01-25T00:55:40.658Z,99.99
2023-01-25T00:56:40.647Z,99.99
2023-01-25T00:57:40.649Z,99.99
2023-01-25T00:58:40.840Z,99.99
2023-01-25T00:59:40.629Z,99.99
2023-01-25T01:00:40.608Z,99.99
2023-01-25T01:01:40.577Z,99.99
2023-01-25T01:02:40.557Z,99.99
2023-01-25T01:03:40.587Z,99.99
2023-01-25T01:04:40.630Z,99.99
2023-01-25T01:05:40.556Z,99.99
2023-01-25T01:06:40.527Z,99.99
2023-01-25T01:07:40.509Z,99.99
2023-01-25T01:08:40.528Z,99.99
2023-01-25T01:09:41.367Z,99.99
2023-01-25T01:10:40.464Z,99.99
2023-01-25T01:11:40.467Z,99.99
2023-01-25T01:12:40.447Z,99.99
2023-01-25T01:13:40.463Z,99.99
2023-01-25T01:14:41.399Z,99.99
2023-01-25T01:15:41.292Z,99.99
2023-01-25T01:16:41.142Z,99.99
2023-01-25T01:17:40.380Z,99.99
2023-01-25T01:18:40.394Z,99.99
2023-01-25T01:19:40.366Z,99.99
2023-01-25T01:20:41.320Z,99.99
2023-01-25T01:21:41.225Z,99.99
2023-01-25T01:22:40.329Z,99.99
2023-01-25T01:23:40.344Z,99.99
2023-01-25T01:24:40.291Z,99.99
2023-01-25T01:25:40.274Z,99.99
2023-01-25T01:26:40.265Z,99.99
2023-01-25T01:27:40.253Z,99.99
2023-01-25T01:28:40.303Z,99.99
2023-01-25T01:29:40.597Z,99.99
2023-01-25T01:30:40.653Z,99.99
2023-01-25T01:31:40.807Z,99.99
2023-01-25T01:32:40.953Z,99.99
2023-01-25T01:33:40.203Z,99.99
2023-01-25T01:34:40.165Z,99.99
2023-01-25T01:35:40.142Z,99.99
2023-01-25T01:36:40.142Z,99.99
2023-01-25T01:37:40.115Z,99.99
2023-01-25T01:38:40.131Z,99.99
2023-01-25T01:39:40.095Z,99.99
2023-01-25T01:40:40.080Z,99.99
2023-01-25T01:41:40.075Z,99.99
2023-01-25T01:42:40.050Z,99.99
2023-01-25T01:43:40.072Z,99.99
2023-01-25T01:44:40.811Z,99.99
2023-01-25T01:45:40.970Z,99.99
2023-01-25T01:46:39.998Z,99.99
2023-01-25T01:47:39.986Z,99.99
2023-01-25T01:48:40.042Z,99.99
2023-01-25T01:49:39.971Z,99.99
2023-01-25T01:50:39.959Z,99.99
2023-01-25T01:51:39.994Z,99.99
2023-01-25T01:52:39.957Z,99.99
2023-01-25T01:53:39.962Z,99.99
2023-01-25T01:54:39.899Z,99.99
2023-01-25T01:55:39.891Z,99.99
2023-01-25T01:56:40.161Z,99.99
2023-01-25T01:57:39.858Z,99.99
2023-01-25T01:58:39.892Z,99.99
2023-01-25T01:59:39.826Z,99.99
2023-01-25T02:00:40.362Z,99.99
2023-01-25T02:01:40.470Z,99.99
2023-01-25T02:02:39.889Z,99.99
2023-01-25T02:03:39.821Z,99.99
2023-01-25T02:04:40.576Z,99.99
2023-01-25T02:05:39.754Z,99.99
2023-01-25T02:06:39.753Z,99.99
2023-01-25T02:07:39.733Z,99.99
2023-01-25T02:08:39.759Z,99.99
2023-01-25T02:09:39.727Z,99.99
2023-01-25T02:10:39.697Z,99.99
2023-01-25T02:11:39.693Z,99.99
2023-01-25T02:12:39.671Z,99.99
2023-01-25T02:13:39.686Z,99.99
2023-01-25T02:14:39.755Z,99.99
2023-01-25T02:15:40.397Z,99.99
2023-01-25T02:16:39.614Z,99.99
2023-01-25T02:17:39.613Z,99.99
2023-01-25T02:18:39.647Z,99.99
2023-01-25T02:19:39.580Z,99.99
2023-01-25T02:20:40.176Z,99.99
2023-01-25T02:21:39.558Z,99.99
2023-01-25T02:22:39.534Z,99.99
2023-01-25T02:23:39.535Z,99.99
2023-01-25T02:24:39.570Z,99.99
2023-01-25T02:25:39.502Z,99.99
2023-01-25T02:26:39.823Z,99.99
2023-01-25T02:27:39.500Z,99.99
2023-01-25T02:28:39.507Z,99.99
2023-01-25T02:29:39.535Z,99.99
2023-01-25T02:30:39.466Z,99.99
2023-01-25T02:31:40.198Z,99.99
2023-01-25T02:32:40.039Z,99.99
2023-01-25T02:33:39.446Z,99.99
2023-01-25T02:34:39.412Z,99.99
2023-01-25T02:35:39.370Z,99.99
2023-01-25T02:36:39.391Z,99.99
2023-01-25T02:37:40.331Z,99.99
2023-01-25T02:38:39.329Z,99.99
2023-01-25T02:39:39.372Z,99.99
2023-01-25T02:40:39.548Z,99.99
2023-01-25T02:41:39.313Z,99.99
2023-01-25T02:42:39.298Z,99.99
2023-01-25T02:43:39.292Z,99.99
2023-01-25T02:44:39.302Z,99.99
2023-01-25T02:45:39.257Z,99.99
2023-01-25T02:46:40.012Z,99.99
2023-01-25T02:47:40.140Z,99.99
2023-01-25T02:48:40.026Z,99.99
2023-01-25T02:49:39.231Z,99.99
2023-01-25T02:50:39.176Z,99.99
2023-01-25T02:51:39.167Z,99.99
2023-01-25T02:52:39.153Z,99.99
2023-01-25T02:53:39.155Z,99.99
2023-01-25T02:54:39.146Z,99.99
2023-01-25T02:55:39.116Z,99.99
2023-01-25T02:56:39.107Z,99.99
2023-01-25T02:57:39.089Z,99.99
2023-01-25T02:58:39.078Z,99.99
2023-01-25T02:59:39.116Z,99.99
2023-01-25T03:00:39.131Z,99.99
2023-01-25T03:01:39.833Z,99.99
2023-01-25T03:02:39.898Z,99.99
2023-01-25T03:03:39.017Z,99.99
2023-01-25T03:04:39.832Z,99.99
2023-01-25T03:05:38.987Z,99.99
2023-01-25T03:06:38.982Z,99.99
2023-01-25T03:07:38.975Z,99.99
2023-01-25T03:08:38.947Z,99.99
2023-01-25T03:09:38.998Z,99.99
2023-01-25T03:10:38.925Z,99.99
2023-01-25T03:11:38.917Z,99.99
2023-01-25T03:12:38.896Z,99.99
2023-01-25T03:13:38.885Z,99.99
2023-01-25T03:14:38.916Z,99.99
2023-01-25T03:15:38.858Z,99.99
2023-01-25T03:16:38.883Z,99.99
2023-01-25T03:17:39.816Z,99.99
2023-01-25T03:18:39.712Z,99.99
2023-01-25T03:19:38.833Z,99.99
2023-01-25T03:20:38.803Z,99.99
2023-01-25T03:21:38.781Z,99.99
2023-01-25T03:22:38.813Z,99.99
2023-01-25T03:23:38.752Z,99.99
2023-01-25T03:24:38.770Z,99.99
2023-01-25T03:25:38.732Z,99.99
2023-01-25T03:26:38.713Z,99.99
2023-01-25T03:27:38.709Z,99.99
2023-01-25T03:28:38.691Z,99.99
2023-01-25T03:29:38.731Z,99.99
2023-01-25T03:30:38.703Z,99.99
2023-01-25T03:31:38.726Z,99.99
2023-01-25T03:32:39.028Z,99.99
2023-01-25T03:33:39.572Z,99.99
2023-01-25T03:34:38.644Z,99.99
2023-01-25T03:35:38.612Z,99.99
2023-01-25T03:36:38.587Z,99.99
2023-01-25T03:37:38.581Z,99.99
2023-01-25T03:38:38.559Z,99.99
2023-01-25T03:39:38.590Z,99.99
2023-01-25T03:40:38.529Z,99.99
2023-01-25T03:41:38.523Z,99.99
2023-01-25T03:42:38.510Z,99.99
2023-01-25T03:43:38.503Z,99.99
2023-01-25T03:44:38.523Z,99.99
2023-01-25T03:45:38.469Z,99.99
2023-01-25T03:46:38.508Z,99.99
2023-01-25T03:47:38.477Z,99.99
2023-01-25T03:48:38.490Z,99.99
2023-01-25T03:49:38.488Z,99.99
2023-01-25T03:50:38.423Z,99.99
2023-01-25T03:51:38.402Z,99.99
2023-01-25T03:52:38.404Z,99.99
2023-01-25T03:53:38.380Z,99.99
2023-01-25T03:54:38.382Z,99.99
2023-01-25T03:55:38.348Z,99.99
2023-01-25T03:56:38.326Z,99.99
2023-01-25T03:57:38.332Z,99.99
2023-01-25T03:58:38.309Z,99.99
2023-01-25T03:59:39.045Z,99.99
2023-01-25T04:00:38.290Z,99.99
2023-01-25T04:01:38.283Z,99.99
2023-01-25T04:02:38.382Z,99.99
2023-01-25T04:03:38.993Z,99.99
2023-01-25T04:04:39.385Z,99.99
2023-01-25T04:05:38.221Z,99.99
2023-01-25T04:06:38.196Z,99.99
2023-01-25T04:07:38.191Z,99.99
2023-01-25T04:08:38.195Z,99.99
2023-01-25T04:09:38.203Z,99.99
2023-01-25T04:10:38.155Z,99.99
2023-01-25T04:11:38.143Z,99.99
2023-01-25T04:12:38.130Z,99.99
2023-01-25T04:13:38.149Z,99.99
2023-01-25T04:14:44.348Z,99.99
2023-01-25T04:15:39.098Z,99.99
2023-01-25T04:16:38.102Z,99.99
2023-01-25T04:17:38.062Z,99.99
2023-01-25T04:18:38.146Z,99.99
2023-01-25T04:19:38.207Z,99.99
2023-01-25T04:20:38.049Z,99.99
2023-01-25T04:21:38.320Z,99.99
2023-01-25T04:22:37.999Z,99.99
2023-01-25T04:23:38.043Z,99.99
2023-01-25T04:24:38.005Z,99.99
2023-01-25T04:25:37.968Z,99.99
2023-01-25T04:26:37.949Z,99.99
2023-01-25T04:27:37.946Z,99.99
2023-01-25T04:28:37.930Z,99.99
2023-01-25T04:29:41.615Z,99.99
2023-01-25T04:30:37.937Z,99.99
2023-01-25T04:31:38.002Z,99.99
2023-01-25T04:32:38.868Z,99.99
2023-01-25T04:33:37.850Z,99.99
2023-01-25T04:34:38.830Z,99.99
2023-01-25T04:35:37.870Z,99.99
2023-01-25T04:36:38.370Z,99.99
2023-01-25T04:37:37.819Z,99.99
2023-01-25T04:38:37.798Z,99.99
2023-01-25T04:39:37.787Z,99.99
2023-01-25T04:40:37.797Z,99.99
2023-01-25T04:41:37.758Z,99.99
2023-01-25T04:42:37.742Z,99.99
2023-01-25T04:43:38.468Z,99.99
2023-01-25T04:44:37.729Z,99.99
2023-01-25T04:45:37.782Z,99.99
2023-01-25T04:46:37.718Z,99.99
2023-01-25T04:47:37.791Z,99.99
2023-01-25T04:48:37.828Z,99.99
2023-01-25T04:49:37.909Z,99.99
2023-01-25T04:50:37.971Z,99.99
2023-01-25T04:51:37.635Z,99.99
2023-01-25T04:52:37.615Z,99.99
2023-01-25T04:53:37.607Z,99.99
2023-01-25T04:54:38.172Z,99.99
2023-01-25T04:55:37.612Z,99.99
2023-01-25T04:56:37.573Z,99.99
2023-01-25T04:57:37.545Z,99.99
2023-01-25T04:58:38.306Z,99.99
2023-01-25T04:59:37.551Z,99.99
2023-01-25T05:00:37.557Z,99.99
2023-01-25T05:01:37.566Z,99.99
2023-01-25T05:02:37.507Z,99.99
2023-01-25T05:03:38.436Z,99.99
2023-01-25T05:04:37.485Z,99.99
2023-01-25T05:05:38.423Z,99.99
2023-01-25T05:06:37.447Z,99.99
2023-01-25T05:07:37.427Z,99.99
2023-01-25T05:08:37.407Z,99.99
2023-01-25T05:09:37.594Z,99.99
2023-01-25T05:10:37.420Z,99.99
2023-01-25T05:11:37.375Z,99.99
2023-01-25T05:12:37.353Z,99.99
2023-01-25T05:13:37.460Z,99.99
2023-01-25T05:14:37.435Z,99.99
2023-01-25T05:15:37.506Z,99.99
2023-01-25T05:16:37.470Z,99.99
2023-01-25T05:17:37.413Z,99.99
2023-01-25T05:18:47.934Z,99.99
2023-01-25T05:19:38.287Z,99.99
2023-01-25T05:20:37.314Z,99.99
2023-01-25T05:21:37.314Z,99.99
2023-01-25T05:22:38.055Z,99.99
2023-01-25T05:23:37.213Z,99.99
2023-01-25T05:24:37.254Z,99.99
2023-01-25T05:25:37.291Z,99.99
2023-01-25T05:26:37.181Z,99.99
2023-01-25T05:27:37.300Z,99.99
2023-01-25T05:28:37.205Z,99.99
2023-01-25T05:29:37.183Z,99.99
2023-01-25T05:30:37.188Z,99.99
2023-01-25T05:31:37.175Z,99.99
2023-01-25T05:32:37.120Z,99.99
2023-01-25T05:33:37.093Z,99.99
2023-01-25T05:34:37.084Z,99.99
2023-01-25T05:35:37.324Z,99.99
2023-01-25T05:36:37.309Z,99.99
2023-01-25T05:37:37.077Z,99.99
2023-01-25T05:38:37.582Z,99.99
2023-01-25T05:39:37.009Z,99.99
2023-01-25T05:40:37.155Z,99.99
2023-01-25T05:41:36.983Z,99.99
2023-01-25T05:42:36.986Z,99.99
2023-01-25T05:43:37.061Z,99.99
2023-01-25T05:44:36.967Z,99.99
2023-01-25T05:45:37.001Z,99.99
2023-01-25T05:46:37.201Z,99.99
2023-01-25T05:47:36.915Z,99.99
2023-01-25T05:48:36.908Z,99.99
2023-01-25T05:49:36.954Z,99.99
2023-01-25T05:50:36.960Z,99.99
2023-01-25T05:51:37.829Z,99.99
2023-01-25T05:52:37.721Z,99.99
2023-01-25T05:53:36.838Z,99.99
2023-01-25T05:54:36.826Z,99.99
2023-01-25T05:55:36.926Z,99.99
2023-01-25T05:56:36.821Z,99.99
2023-01-25T05:57:36.846Z,99.99
2023-01-25T05:58:36.786Z,99.99
2023-01-25T05:59:36.761Z,99.99
2023-01-25T06:00:36.856Z,99.99
2023-01-25T06:01:36.815Z,99.99
2023-01-25T06:02:36.828Z,99.99
2023-01-25T06:03:36.806Z,99.99
2023-01-25T06:04:36.700Z,99.99
2023-01-25T06:05:36.759Z,99.99
2023-01-25T06:06:37.101Z,99.99
2023-01-25T06:07:36.677Z,99.99
2023-01-25T06:08:36.641Z,99.99
2023-01-25T06:09:36.636Z,99.99
2023-01-25T06:10:36.663Z,99.99
2023-01-25T06:11:37.313Z,99.99
2023-01-25T06:12:36.805Z,99.99
2023-01-25T06:13:36.577Z,99.99
2023-01-25T06:14:36.571Z,99.99
2023-01-25T06:15:36.645Z,99.99
2023-01-25T06:16:36.554Z,99.99
2023-01-25T06:17:36.595Z,99.99
2023-01-25T06:18:36.540Z,99.99
2023-01-25T06:19:36.896Z,99.99
2023-01-25T06:20:36.531Z,99.99
2023-01-25T06:21:36.471Z,99.99
2023-01-25T06:22:36.499Z,99.99
2023-01-25T06:23:37.115Z,99.99
2023-01-25T06:24:36.449Z,99.99
2023-01-25T06:25:36.445Z,99.99
2023-01-25T06:26:36.450Z,99.99
2023-01-25T06:27:36.406Z,99.99
2023-01-25T06:28:36.382Z,99.99
2023-01-25T06:29:36.374Z,99.99
2023-01-25T06:30:36.382Z,99.99
2023-01-25T06:31:36.487Z,99.99
2023-01-25T06:32:37.211Z,99.99
2023-01-25T06:33:36.578Z,99.99
2023-01-25T06:34:36.674Z,99.99
2023-01-25T06:35:36.674Z,99.99
2023-01-25T06:36:36.236Z,99.99
2023-01-25T06:37:36.988Z,99.99
2023-01-25T06:38:37.054Z,99.99
2023-01-25T06:39:36.274Z,99.99
2023-01-25T06:40:36.809Z,99.99
2023-01-25T06:41:36.311Z,99.99
2023-01-25T06:42:36.284Z,99.99
2023-01-25T06:43:36.295Z,99.99
2023-01-25T06:44:36.204Z,99.99
2023-01-25T06:45:36.327Z,99.99
2023-01-25T06:46:36.222Z,99.99
2023-01-25T06:47:36.211Z,99.99
2023-01-25T06:48:36.130Z,99.99
2023-01-25T06:49:36.083Z,99.99
2023-01-25T06:50:36.127Z,99.99
2023-01-25T06:51:36.035Z,99.99
2023-01-25T06:52:36.741Z,99.99
2023-01-25T06:53:36.761Z,99.99
2023-01-25T06:54:36.007Z,99.99
2023-01-25T06:55:36.050Z,99.99
2023-01-25T06:56:35.975Z,99.99
2023-01-25T06:57:35.964Z,99.99
2023-01-25T06:58:35.967Z,99.99
2023-01-25T06:59:35.935Z,99.99
2023-01-25T07:00:35.974Z,99.99
2023-01-25T07:01:35.956Z,99.99
2023-01-25T07:02:36.086Z,99.99
2023-01-25T07:03:35.897Z,99.99
2023-01-25T07:04:35.880Z,99.99
2023-01-25T07:05:35.882Z,99.99
2023-01-25T07:06:35.843Z,99.99
2023-01-25T07:07:35.828Z,99.99
2023-01-25T07:08:36.615Z,99.99
2023-01-25T07:09:36.743Z,99.99
2023-01-25T07:10:35.865Z,99.99
2023-01-25T07:11:36.553Z,99.99
2023-01-25T07:12:35.774Z,99.99
2023-01-25T07:13:35.764Z,99.99
2023-01-25T07:14:35.744Z,99.99
2023-01-25T07:15:35.735Z,99.99
2023-01-25T07:16:35.800Z,99.99
2023-01-25T07:17:35.849Z,99.99
2023-01-25T07:18:35.921Z,99.99
2023-01-25T07:19:36.140Z,99.99
2023-01-25T07:20:36.213Z,99.99
2023-01-25T07:21:36.308Z,99.99
2023-01-25T07:22:35.651Z,99.99
2023-01-25T07:23:36.414Z,99.99
2023-01-25T07:24:36.469Z,99.99
2023-01-25T07:25:35.607Z,99.99
2023-01-25T07:26:35.624Z,99.99
2023-01-25T07:27:35.572Z,99.99
2023-01-25T07:28:35.577Z,99.99
2023-01-25T07:29:35.556Z,99.99
2023-01-25T07:30:35.570Z,99.99
2023-01-25T07:31:35.620Z,99.99
2023-01-25T07:32:35.534Z,99.99
2023-01-25T07:33:35.515Z,99.99
2023-01-25T07:34:35.489Z,99.99
2023-01-25T07:35:35.469Z,99.99
2023-01-25T07:36:35.501Z,99.99
2023-01-25T07:37:35.451Z,99.99
2023-01-25T07:38:36.276Z,99.99
2023-01-25T07:39:35.447Z,99.99
2023-01-25T07:40:35.471Z,99.99
2023-01-25T07:41:35.519Z,99.99
2023-01-25T07:42:35.384Z,99.99
2023-01-25T07:43:35.378Z,99.99
2023-01-25T07:44:35.366Z,99.99
2023-01-25T07:45:35.401Z,99.99
2023-01-25T07:46:35.355Z,99.99
2023-01-25T07:47:37.142Z,99.99
2023-01-25T07:48:35.337Z,99.99
2023-01-25T07:49:35.324Z,99.99
2023-01-25T07:50:35.330Z,99.99
2023-01-25T07:51:35.328Z,99.99
2023-01-25T07:52:35.268Z,99.99
2023-01-25T07:53:35.267Z,99.99
2023-01-25T07:54:35.841Z,99.99
2023-01-25T07:55:35.784Z,99.99
2023-01-25T07:56:35.213Z,99.99
2023-01-25T07:57:35.183Z,99.99
2023-01-25T07:58:35.230Z,99.99
2023-01-25T07:59:35.163Z,99.99
2023-01-25T08:00:35.161Z,99.99
2023-01-25T08:01:35.201Z,99.99
2023-01-25T08:02:35.134Z,99.99
2023-01-25T08:03:35.291Z,99.99
2023-01-25T08:04:35.100Z,99.99
2023-01-25T08:05:35.102Z,99.99
2023-01-25T08:06:35.124Z,99.99
2023-01-25T08:07:35.054Z,99.99
2023-01-25T08:08:35.042Z,99.99
2023-01-25T08:09:35.074Z,99.99
2023-01-25T08:10:35.148Z,99.99
2023-01-25T08:11:35.030Z,99.99
2023-01-25T08:12:35.232Z,99.99
2023-01-25T08:13:34.991Z,99.99
2023-01-25T08:14:35.127Z,99.99
2023-01-25T08:15:34.960Z,99.99
2023-01-25T08:16:34.990Z,99.99
2023-01-25T08:17:35.480Z,99.99
2023-01-25T08:18:36.050Z,99.99
2023-01-25T08:19:35.696Z,99.99
2023-01-25T08:20:34.928Z,99.99
2023-01-25T08:21:34.936Z,99.99
2023-01-25T08:22:35.646Z,99.99
2023-01-25T08:23:34.854Z,99.99
2023-01-25T08:24:34.934Z,99.99
2023-01-25T08:25:35.599Z,99.99
2023-01-25T08:26:34.878Z,99.99
2023-01-25T08:27:34.818Z,99.99
2023-01-25T08:28:36.058Z,99.99
2023-01-25T08:29:34.778Z,99.99
2023-01-25T08:30:34.873Z,99.99
2023-01-25T08:31:34.794Z,99.99
2023-01-25T08:32:36.520Z,99.99
2023-01-25T08:33:34.771Z,99.99
2023-01-25T08:34:35.095Z,99.99
2023-01-25T08:35:34.706Z,99.99
2023-01-25T08:36:34.732Z,99.99
2023-01-25T08:37:34.863Z,99.99
2023-01-25T08:38:34.677Z,99.99
2023-01-25T08:39:34.657Z,99.99
2023-01-25T08:40:37.156Z,99.99
2023-01-25T08:41:34.766Z,99.99
2023-01-25T08:42:34.628Z,99.99
2023-01-25T08:43:34.615Z,99.99
2023-01-25T08:44:34.593Z,99.99
2023-01-25T08:45:34.571Z,99.99
2023-01-25T08:46:35.105Z,99.99
2023-01-25T08:47:34.545Z,99.99
2023-01-25T08:48:34.548Z,99.99
2023-01-25T08:49:34.561Z,99.99
2023-01-25T08:50:35.261Z,99.99
2023-01-25T08:51:34.534Z,99.99
2023-01-25T08:52:34.512Z,99.99
2023-01-25T08:53:34.483Z,99.99
2023-01-25T08:54:34.454Z,99.99
2023-01-25T08:55:34.464Z,99.99
2023-01-25T08:56:34.507Z,99.99
2023-01-25T08:57:35.346Z,99.99
2023-01-25T08:58:34.420Z,99.99
2023-01-25T08:59:34.412Z,99.99
2023-01-25T09:00:34.394Z,99.99
2023-01-25T09:01:35.211Z,99.99
2023-01-25T09:02:35.292Z,99.99
2023-01-25T09:03:34.385Z,99.99
2023-01-25T09:04:34.344Z,99.99
2023-01-25T09:05:34.331Z,99.99
2023-01-25T09:06:34.393Z,99.99
2023-01-25T09:07:34.291Z,99.99
2023-01-25T09:08:34.283Z,99.99
2023-01-25T09:09:34.312Z,99.99
2023-01-25T09:10:34.268Z,99.99
2023-01-25T09:11:34.284Z,99.99
2023-01-25T09:12:34.299Z,99.99
2023-01-25T09:13:34.214Z,99.99
2023-01-25T09:14:34.212Z,99.99
2023-01-25T09:15:34.294Z,99.99
2023-01-25T09:16:34.352Z,99.99
2023-01-25T09:17:34.223Z,99.99
2023-01-25T09:18:34.197Z,99.99
2023-01-25T09:19:34.179Z,99.99
2023-01-25T09:20:34.705Z,99.99
2023-01-25T09:21:34.267Z,99.99
2023-01-25T09:22:34.236Z,99.99
2023-01-25T09:23:44.275Z,99.99
2023-01-25T09:24:37.345Z,99.99
2023-01-25T09:25:34.281Z,99.99
2023-01-25T09:26:34.296Z,99.99
2023-01-25T09:27:34.297Z,99.99
2023-01-25T09:28:34.063Z,99.99
2023-01-25T09:29:34.012Z,99.99
2023-01-25T09:30:45.844Z,99.99
2023-01-25T09:31:35.048Z,99.99
2023-01-25T09:32:34.127Z,99.99
2023-01-25T09:33:34.660Z,99.99
2023-01-25T09:34:33.948Z,99.99
2023-01-25T09:35:34.016Z,99.99
2023-01-25T09:36:33.918Z,99.99
2023-01-25T09:37:33.952Z,99.99
2023-01-25T09:38:33.899Z,99.99
2023-01-25T09:39:33.908Z,99.99
2023-01-25T09:40:33.868Z,99.99
2023-01-25T09:41:33.863Z,99.99
2023-01-25T09:42:34.162Z,99.99
2023-01-25T09:43:34.065Z,99.99
2023-01-25T09:44:33.826Z,99.99
2023-01-25T09:45:34.186Z,99.71
2023-01-25T09:46:33.853Z,99.92
2023-01-25T09:47:33.833Z,99.61
2023-01-25T09:48:33.756Z,99.82
2023-01-25T09:49:33.775Z,99.92
2023-01-25T09:50:34.653Z,99.29
2023-01-25T09:51:33.742Z,99.61
2023-01-25T09:52:33.784Z,99.98
2023-01-25T09:53:33.723Z,99.98
2023-01-25T09:54:42.345Z,99.88
2023-01-25T09:55:34.686Z,99.88
2023-01-25T09:56:34.229Z,99.52
2023-01-25T09:57:34.244Z,99.62
2023-01-25T09:58:34.225Z,99.73
2023-01-25T09:59:33.648Z,99.52
2023-01-25T10:00:33.613Z,99.41
2023-01-25T10:01:38.962Z,98.47
2023-01-25T10:02:34.836Z,98.05
2023-01-25T10:03:33.573Z,97.89
2023-01-25T10:04:33.571Z,97.68
2023-01-25T10:05:33.552Z,97.99
2023-01-25T10:06:33.573Z,98.31
2023-01-25T10:07:33.603Z,98.41
2023-01-25T10:08:33.759Z,98.62
2023-01-25T10:09:33.579Z,98.62
2023-01-25T10:10:33.539Z,98.83
2023-01-25T10:11:33.482Z,99.25
2023-01-25T10:12:33.497Z,98.72
2023-01-25T10:13:33.719Z,97.99
2023-01-25T10:14:33.751Z,98.21
2023-01-25T10:15:33.421Z,98.31
2023-01-25T10:16:33.517Z,98.83
2023-01-25T10:17:33.430Z,99.35
2023-01-25T10:18:33.393Z,99.46
2023-01-25T10:19:33.385Z,99.46
2023-01-25T10:20:33.373Z,99.04
2023-01-25T10:21:33.355Z,98.72
2023-01-25T10:22:33.448Z,98.83
2023-01-25T10:23:33.327Z,98.62
2023-01-25T10:24:33.310Z,98.41
2023-01-25T10:25:33.304Z,98.21
2023-01-25T10:26:33.286Z,98.52
2023-01-25T10:27:33.291Z,98.46
2023-01-25T10:28:34.020Z,99.04
2023-01-25T10:29:33.382Z,99.15
2023-01-25T10:30:33.238Z,99.35
2023-01-25T10:31:33.285Z,99.10
2023-01-25T10:32:33.663Z,99.10
2023-01-25T10:33:35.156Z,98.89
2023-01-25T10:34:34.147Z,98.37
2023-01-25T10:35:36.399Z,97.11
2023-01-25T10:36:33.392Z,97.53
2023-01-25T10:37:33.174Z,97.95
2023-01-25T10:38:33.115Z,98.16
2023-01-25T10:39:33.115Z,98.16
2023-01-25T10:40:33.096Z,98.05
2023-01-25T10:41:33.092Z,97.74
2023-01-25T10:42:33.095Z,97.53
2023-01-25T10:43:33.339Z,97.47
2023-01-25T10:44:33.384Z,97.68
2023-01-25T10:45:33.035Z,97.99
2023-01-25T10:46:33.066Z,98.47
2023-01-25T10:47:33.035Z,98.79
2023-01-25T10:48:32.997Z,98.16
2023-01-25T10:49:33.001Z,98.05
2023-01-25T10:50:32.992Z,97.53
2023-01-25T10:51:32.980Z,97.59
2023-01-25T10:52:32.979Z,97.28
2023-01-25T10:53:32.945Z,97.07
2023-01-25T10:54:32.904Z,96.86
2023-01-25T10:55:32.904Z,97.07
2023-01-25T10:56:32.888Z,96.97
2023-01-25T10:57:32.899Z,97.07
2023-01-25T10:58:32.863Z,96.97
2023-01-25T10:59:32.991Z,96.91
2023-01-25T11:00:32.832Z,97.17
2023-01-25T11:01:32.867Z,97.49
2023-01-25T11:02:32.874Z,97.59
2023-01-25T11:03:32.803Z,97.17
2023-01-25T11:04:32.779Z,96.23
2023-01-25T11:05:32.771Z,96.44
2023-01-25T11:06:32.752Z,96.76
2023-01-25T11:07:32.775Z,96.76
2023-01-25T11:08:32.731Z,96.66
2023-01-25T11:09:32.722Z,96.97
2023-01-25T11:10:32.708Z,96.86
2023-01-25T11:11:32.709Z,97.07
2023-01-25T11:12:32.700Z,96.97
2023-01-25T11:13:32.731Z,96.66
2023-01-25T11:14:32.658Z,96.44
2023-01-25T11:15:32.662Z,96.50
2023-01-25T11:16:32.623Z,96.30
2023-01-25T11:17:32.652Z,96.50
2023-01-25T11:18:32.605Z,96.40
2023-01-25T11:19:32.588Z,96.46
2023-01-25T11:20:32.591Z,96.25
2023-01-25T11:21:32.624Z,95.83
2023-01-25T11:22:32.570Z,95.31
2023-01-25T11:23:32.539Z,94.48
2023-01-25T11:24:32.522Z,94.90
2023-01-25T11:25:32.522Z,95.10
2023-01-25T11:26:32.551Z,95.10
2023-01-25T11:27:32.532Z,95.36
2023-01-25T11:28:32.484Z,95.73
2023-01-25T11:29:32.490Z,95.42
2023-01-25T11:30:32.479Z,95.21
2023-01-25T11:31:32.599Z,95.42
2023-01-25T11:32:32.465Z,95.42
2023-01-25T11:33:32.503Z,95.21
2023-01-25T11:34:32.402Z,95.10
2023-01-25T11:35:32.433Z,95.31
2023-01-25T11:36:32.418Z,94.79
2023-01-25T11:37:32.411Z,94.79
2023-01-25T11:38:32.392Z,94.69
2023-01-25T11:39:32.338Z,94.58
2023-01-25T11:40:32.334Z,94.90
2023-01-25T11:41:34.235Z,95.21
2023-01-25T11:42:32.299Z,95.00
2023-01-25T11:43:32.393Z,94.73
2023-01-25T11:44:32.275Z,95.04
2023-01-25T11:45:32.267Z,95.36
2023-01-25T11:46:32.499Z,95.56
2023-01-25T11:47:32.414Z,95.56
2023-01-25T11:48:32.390Z,95.62
2023-01-25T11:49:32.209Z,95.52
2023-01-25T11:50:32.206Z,95.52
2023-01-25T11:51:32.289Z,95.42
2023-01-25T11:52:32.170Z,94.48
2023-01-25T11:53:32.481Z,94.90
2023-01-25T11:54:32.253Z,95.10
2023-01-25T11:55:32.126Z,95.00
2023-01-25T11:56:32.124Z,94.37
2023-01-25T11:57:32.121Z,94.27
2023-01-25T11:58:32.117Z,94.58
2023-01-25T11:59:32.084Z,94.42
2023-01-25T12:00:32.072Z,94.63
2023-01-25T12:01:32.060Z,94.94
2023-01-25T12:02:32.056Z,95.15
2023-01-25T12:03:32.150Z,95.25
2023-01-25T12:04:32.002Z,95.67
2023-01-25T12:05:32.769Z,95.67
2023-01-25T12:06:31.992Z,95.36
2023-01-25T12:07:31.986Z,95.15
2023-01-25T12:08:33.012Z,95.04
2023-01-25T12:09:31.961Z,95.67
2023-01-25T12:10:31.944Z,95.50
2023-01-25T12:11:31.930Z,95.50
2023-01-25T12:12:31.921Z,95.92
2023-01-25T12:13:32.502Z,95.82
2023-01-25T12:14:31.893Z,96.13
2023-01-25T12:15:31.881Z,96.28
2023-01-25T12:16:31.861Z,96.80
2023-01-25T12:17:31.849Z,97.01
2023-01-25T12:18:31.869Z,97.11
2023-01-25T12:19:31.911Z,96.91
2023-01-25T12:20:31.818Z,96.91
2023-01-25T12:21:31.923Z,96.70
2023-01-25T12:22:31.808Z,96.76
2023-01-25T12:23:31.806Z,96.86
2023-01-25T12:24:31.763Z,96.13
2023-01-25T12:25:31.840Z,95.40
2023-01-25T12:26:31.720Z,95.86
2023-01-25T12:27:31.809Z,96.49
2023-01-25T12:28:31.729Z,96.28
2023-01-25T12:29:31.776Z,96.17
2023-01-25T12:30:31.686Z,96.17
2023-01-25T12:31:31.749Z,96.59
2023-01-25T12:32:31.648Z,96.91
2023-01-25T12:33:31.657Z,97.01
2023-01-25T12:34:31.791Z,96.49
2023-01-25T12:35:32.473Z,96.17
2023-01-25T12:36:31.628Z,96.38
2023-01-25T12:37:31.586Z,96.76
2023-01-25T12:38:31.597Z,96.23
2023-01-25T12:39:31.574Z,95.72
2023-01-25T12:40:31.537Z,95.29
2023-01-25T12:41:31.551Z,95.40
2023-01-25T12:42:31.854Z,95.46
2023-01-25T12:43:31.578Z,94.94
2023-01-25T12:44:31.487Z,94.10
2023-01-25T12:45:31.478Z,94.00
2023-01-25T12:46:32.316Z,94.10
2023-01-25T12:47:31.705Z,93.90
2023-01-25T12:48:32.114Z,93.69
2023-01-25T12:49:31.485Z,93.37
2023-01-25T12:50:31.415Z,93.41
2023-01-25T12:51:31.542Z,93.59
2023-01-25T12:52:31.501Z,94.04